Time;durP1;ratioP1;P1;durP2;ratioP2;P2;SDS_P1;SDS_P2;PMS_P1;PMS_P2;Temp;Humidity;BMP_temperature;BMP_pressure;BME280_temperature;BME280_humidity;BME280_pressure;Samples;Min_cycle;Max_cycle;Signal;HPM_P1;HPM_P2
2023/12/20 00:01:03;;;;;;;79.07;75.10;;;;;;;;;;5028933;28;20032;-58
2023/12/20 00:03:29;;;;;;;75.03;71.30;;;;;;;;;;5029590;28;20371;-58
2023/12/20 00:05:55;;;;;;;88.93;84.53;;;;;;;;;;5028373;28;20445;-58
2023/12/20 00:08:20;;;;;;;83.93;79.78;;;;;;;;;;5030440;28;20422;-58
2023/12/20 00:10:46;;;;;;;80.93;76.93;;;;;;;;;;5031736;28;20048;-57
2023/12/20 00:13:11;;;;;;;79.80;75.82;;;;;;;;;;5032281;28;20033;-58
2023/12/20 00:15:37;;;;;;;78.15;74.25;;;;;;;;;;5026732;28;20038;-58
2023/12/20 00:18:02;;;;;;;85.70;81.50;;;;;;;;;;5031027;28;20025;-57
2023/12/20 00:20:28;;;;;;;80.70;76.70;;;;;;;;;;5029385;28;20389;-58
2023/12/20 00:23:00;;;;;;;83.75;79.60;;;;;;;;;;5032605;28;20034;-57
2023/12/20 00:25:25;;;;;;;83.38;79.03;;;;;;;;;;5033191;28;20036;-58
2023/12/20 00:27:51;;;;;;;86.45;82.13;;;;;;;;;;5032271;28;20021;-58
2023/12/20 00:30:16;;;;;;;82.15;78.00;;;;;;;;;;5033675;28;20045;-58
2023/12/20 00:32:46;;;;;;;80.80;76.78;;;;;;;;;;5037053;28;20467;-58
2023/12/20 00:35:15;;;;;;;78.97;74.97;;;;;;;;;;5027922;28;20038;-58
2023/12/20 00:37:42;;;;;;;78.95;75.00;;;;;;;;;;5028953;28;20060;-57
2023/12/20 00:40:08;;;;;;;81.65;77.63;;;;;;;;;;5026455;28;20083;-57
2023/12/20 00:42:33;;;;;;;80.78;76.72;;;;;;;;;;5032265;28;20462;-56
2023/12/20 00:44:59;;;;;;;79.43;75.50;;;;;;;;;;5030879;28;20030;-57
2023/12/20 00:47:25;;;;;;;81.40;77.30;;;;;;;;;;5038214;28;20355;-57
2023/12/20 00:49:50;;;;;;;79.60;75.60;;;;;;;;;;5032998;28;20041;-56
2023/12/20 00:52:17;;;;;;;79.60;75.63;;;;;;;;;;5032638;28;20566;-58
2023/12/20 00:54:43;;;;;;;75.80;72.03;;;;;;;;;;5033482;28;20060;-58
2023/12/20 00:57:09;;;;;;;81.78;77.68;;;;;;;;;;5029661;28;20406;-57
2023/12/20 00:59:34;;;;;;;81.57;77.53;;;;;;;;;;5032172;28;20032;-57
2023/12/20 01:01:59;;;;;;;74.15;70.45;;;;;;;;;;5028062;28;20025;-57
2023/12/20 01:04:24;;;;;;;82.93;78.82;;;;;;;;;;5030221;28;20037;-57
2023/12/20 01:06:50;;;;;;;82.28;78.18;;;;;;;;;;5029757;28;20044;-57
2023/12/20 01:09:15;;;;;;;83.00;78.65;;;;;;;;;;5027597;28;20108;-57
2023/12/20 01:11:40;;;;;;;87.28;82.93;;;;;;;;;;5028749;28;20040;-58
2023/12/20 01:14:06;;;;;;;82.75;78.60;;;;;;;;;;5028527;28;20033;-57
2023/12/20 01:16:31;;;;;;;80.82;76.80;;;;;;;;;;5028283;28;20039;-57
2023/12/20 01:18:56;;;;;;;84.18;80.03;;;;;;;;;;5028120;28;20037;-58
2023/12/20 01:21:22;;;;;;;84.15;79.97;;;;;;;;;;5029442;28;20033;-58
2023/12/20 01:23:47;;;;;;;82.20;78.03;;;;;;;;;;5032798;28;20160;-58
2023/12/20 01:26:12;;;;;;;85.75;81.45;;;;;;;;;;5028432;28;20109;-57
2023/12/20 01:28:38;;;;;;;82.05;77.95;;;;;;;;;;5031282;28;20061;-57
2023/12/20 01:31:03;;;;;;;79.40;75.45;;;;;;;;;;5031393;28;20033;-58
2023/12/20 01:33:29;;;;;;;81.93;77.88;;;;;;;;;;5027715;28;20079;-58
2023/12/20 01:35:54;;;;;;;79.55;75.60;;;;;;;;;;5030232;28;20033;-58
2023/12/20 01:38:20;;;;;;;80.05;76.07;;;;;;;;;;5026600;28;20056;-58
2023/12/20 01:40:45;;;;;;;79.68;75.72;;;;;;;;;;5028397;28;20033;-58
2023/12/20 01:43:13;;;;;;;81.38;77.32;;;;;;;;;;5028522;28;20040;-58
2023/12/20 01:45:39;;;;;;;82.00;77.95;;;;;;;;;;5029599;28;20055;-58
2023/12/20 01:48:05;;;;;;;84.35;80.15;;;;;;;;;;5031217;28;20025;-58
2023/12/20 01:50:31;;;;;;;85.97;81.68;;;;;;;;;;5028047;28;20473;-58
2023/12/20 01:52:59;;;;;;;80.00;76.00;;;;;;;;;;5030441;28;20033;-58
2023/12/20 01:55:26;;;;;;;83.53;79.38;;;;;;;;;;5028096;28;20043;-57
2023/12/20 01:57:51;;;;;;;83.63;79.43;;;;;;;;;;5031875;28;20037;-57
2023/12/20 02:00:18;;;;;;;79.18;74.97;;;;;;;;;;5029585;28;20106;-58
2023/12/20 02:02:44;;;;;;;81.93;77.80;;;;;;;;;;5032658;28;20029;-58
2023/12/20 02:05:10;;;;;;;82.25;78.18;;;;;;;;;;5027884;28;20032;-57
2023/12/20 02:07:36;;;;;;;88.38;83.82;;;;;;;;;;5028897;28;20598;-58
2023/12/20 02:10:02;;;;;;;81.95;77.88;;;;;;;;;;5028397;28;20063;-58
2023/12/20 02:12:27;;;;;;;83.07;78.85;;;;;;;;;;5030145;28;20028;-58
2023/12/20 02:14:53;;;;;;;80.65;76.65;;;;;;;;;;5026191;28;20395;-58
2023/12/20 02:17:20;;;;;;;80.20;76.22;;;;;;;;;;5031235;28;20664;-58
2023/12/20 02:19:45;;;;;;;82.57;78.45;;;;;;;;;;5029571;28;20033;-58
2023/12/20 02:22:11;;;;;;;79.10;75.15;;;;;;;;;;5026338;28;20059;-58
2023/12/20 02:24:37;;;;;;;77.57;73.72;;;;;;;;;;5029563;28;20041;-58
2023/12/20 02:27:05;;;;;;;78.25;74.35;;;;;;;;;;5025170;28;20044;-58
2023/12/20 02:29:30;;;;;;;80.63;76.57;;;;;;;;;;5028444;28;20138;-58
2023/12/20 02:31:56;;;;;;;78.55;74.63;;;;;;;;;;5025789;28;20124;-58
2023/12/20 02:34:21;;;;;;;79.28;75.32;;;;;;;;;;5027490;28;20451;-58
2023/12/20 02:36:46;;;;;;;76.72;72.93;;;;;;;;;;5028986;28;20462;-58
2023/12/20 02:39:12;;;;;;;74.93;71.20;;;;;;;;;;5040357;28;20124;-58
2023/12/20 02:41:38;;;;;;;77.97;74.07;;;;;;;;;;5026347;28;20044;-58
2023/12/20 02:44:03;;;;;;;78.10;74.20;;;;;;;;;;5030087;28;20045;-58
2023/12/20 02:46:29;;;;;;;77.72;73.85;;;;;;;;;;5026984;28;20076;-58
2023/12/20 02:48:54;;;;;;;77.82;73.93;;;;;;;;;;5028179;28;20124;-58
2023/12/20 02:51:20;;;;;;;73.78;70.13;;;;;;;;;;5029115;28;20371;-58
2023/12/20 02:53:45;;;;;;;75.30;71.55;;;;;;;;;;5030306;28;20072;-58
2023/12/20 02:56:10;;;;;;;74.72;70.97;;;;;;;;;;5032299;28;20037;-58
2023/12/20 02:58:35;;;;;;;75.07;71.30;;;;;;;;;;5037144;28;20600;-58
2023/12/20 03:01:01;;;;;;;74.25;70.55;;;;;;;;;;5028090;28;20029;-58
2023/12/20 03:03:26;;;;;;;78.72;74.72;;;;;;;;;;5029335;28;20033;-58
2023/12/20 03:05:51;;;;;;;73.25;69.55;;;;;;;;;;5033890;28;20060;-58
2023/12/20 03:08:17;;;;;;;78.05;74.20;;;;;;;;;;5032144;28;20037;-58
2023/12/20 03:10:42;;;;;;;73.50;69.82;;;;;;;;;;5035836;28;20029;-58
2023/12/20 03:13:08;;;;;;;76.30;72.50;;;;;;;;;;5034757;28;20033;-59
2023/12/20 03:15:33;;;;;;;74.43;70.72;;;;;;;;;;5034663;28;20048;-58
2023/12/20 03:17:59;;;;;;;74.10;70.43;;;;;;;;;;5030832;28;20107;-58
2023/12/20 03:20:26;;;;;;;74.95;71.20;;;;;;;;;;5031593;28;20128;-58
2023/12/20 03:22:51;;;;;;;75.25;71.43;;;;;;;;;;5035761;28;20029;-58
2023/12/20 03:25:17;;;;;;;77.60;73.78;;;;;;;;;;5035786;28;20045;-58
2023/12/20 03:27:42;;;;;;;75.82;72.05;;;;;;;;;;5032803;28;20095;-58
2023/12/20 03:30:08;;;;;;;77.00;73.18;;;;;;;;;;5031236;28;20072;-59
2023/12/20 03:32:33;;;;;;;74.57;70.88;;;;;;;;;;5033811;28;20033;-58
2023/12/20 03:34:58;;;;;;;74.43;70.72;;;;;;;;;;5028280;28;20052;-58
2023/12/20 03:37:24;;;;;;;75.82;72.05;;;;;;;;;;5027616;28;20025;-58
2023/12/20 03:39:49;;;;;;;78.00;74.13;;;;;;;;;;5035162;28;20091;-58
2023/12/20 03:42:15;;;;;;;75.15;71.43;;;;;;;;;;5030229;28;20046;-58
2023/12/20 03:44:40;;;;;;;73.97;70.30;;;;;;;;;;5029950;28;20698;-58
2023/12/20 03:47:06;;;;;;;75.70;71.95;;;;;;;;;;5030921;28;20065;-58
2023/12/20 03:49:31;;;;;;;74.70;70.93;;;;;;;;;;5031869;28;20110;-58
2023/12/20 03:51:57;;;;;;;79.45;75.50;;;;;;;;;;5030810;28;20025;-58
2023/12/20 03:54:22;;;;;;;77.95;74.07;;;;;;;;;;5030076;28;20499;-58
2023/12/20 03:56:48;;;;;;;75.68;71.85;;;;;;;;;;5029065;28;20044;-58
2023/12/20 03:59:13;;;;;;;79.68;75.68;;;;;;;;;;5030974;28;20037;-58
2023/12/20 04:01:44;;;;;;;75.97;72.18;;;;;;;;;;5029078;28;20044;-58
2023/12/20 04:04:10;;;;;;;81.03;77.03;;;;;;;;;;5029835;28;20133;-58
2023/12/20 04:06:36;;;;;;;79.43;75.50;;;;;;;;;;5029820;28;20112;-58
2023/12/20 04:09:01;;;;;;;83.15;78.97;;;;;;;;;;5033155;28;20025;-58
2023/12/20 04:11:26;;;;;;;79.40;75.45;;;;;;;;;;5030870;28;20037;-58
2023/12/20 04:13:52;;;;;;;75.88;72.13;;;;;;;;;;5028704;28;20082;-58
2023/12/20 04:16:17;;;;;;;80.65;76.63;;;;;;;;;;5032746;28;20510;-58
2023/12/20 04:18:42;;;;;;;75.72;71.97;;;;;;;;;;5028085;28;20044;-58
2023/12/20 04:21:08;;;;;;;72.78;69.15;;;;;;;;;;5031094;28;20025;-58
2023/12/20 04:23:33;;;;;;;78.68;74.78;;;;;;;;;;5029694;28;20242;-56
2023/12/20 04:25:58;;;;;;;81.80;77.75;;;;;;;;;;5030356;28;20562;-58
2023/12/20 04:28:24;;;;;;;80.13;76.15;;;;;;;;;;5031701;28;20080;-58
2023/12/20 04:30:49;;;;;;;75.95;72.15;;;;;;;;;;5033273;28;20377;-58
2023/12/20 04:33:15;;;;;;;75.00;71.25;;;;;;;;;;5030787;28;20771;-58
2023/12/20 04:35:42;;;;;;;79.57;75.60;;;;;;;;;;5031886;28;20030;-58
2023/12/20 04:38:08;;;;;;;80.22;76.25;;;;;;;;;;5030448;28;20025;-58
2023/12/20 04:40:33;;;;;;;75.93;72.13;;;;;;;;;;5030500;28;20045;-58
2023/12/20 04:42:58;;;;;;;79.20;75.28;;;;;;;;;;5030814;28;20064;-58
2023/12/20 04:45:24;;;;;;;74.35;70.65;;;;;;;;;;5030244;28;20037;-58
2023/12/20 04:47:50;;;;;;;77.78;73.90;;;;;;;;;;5029090;28;20036;-59
2023/12/20 04:50:16;;;;;;;74.47;70.78;;;;;;;;;;5028791;28;20040;-58
2023/12/20 04:52:41;;;;;;;77.45;73.60;;;;;;;;;;5029499;28;20052;-58
2023/12/20 04:55:08;;;;;;;76.57;72.78;;;;;;;;;;5030019;28;20045;-58
2023/12/20 04:57:34;;;;;;;72.47;68.88;;;;;;;;;;5028785;28;20248;-58
2023/12/20 04:59:59;;;;;;;70.32;66.80;;;;;;;;;;5031256;28;20040;-58
2023/12/20 05:02:24;;;;;;;68.00;64.60;;;;;;;;;;5029331;28;20037;-58
2023/12/20 05:04:50;;;;;;;69.30;65.82;;;;;;;;;;5029873;28;20041;-58
2023/12/20 05:07:15;;;;;;;68.93;65.45;;;;;;;;;;5030828;28;20456;-58
2023/12/20 05:09:41;;;;;;;67.78;64.32;;;;;;;;;;5030450;28;20034;-56
2023/12/20 05:12:07;;;;;;;64.32;61.00;;;;;;;;;;5028978;28;20063;-58
2023/12/20 05:14:32;;;;;;;63.78;60.60;;;;;;;;;;5026929;28;20572;-58
2023/12/20 05:16:58;;;;;;;73.75;68.72;;;;;;;;;;5041126;28;20052;-58
2023/12/20 05:19:24;;;;;;;67.00;63.67;;;;;;;;;;5027932;28;20293;-58
2023/12/20 05:21:49;;;;;;;70.35;66.82;;;;;;;;;;5026511;28;20071;-59
2023/12/20 05:24:15;;;;;;;76.85;72.80;;;;;;;;;;5028909;28;20045;-58
2023/12/20 05:26:40;;;;;;;75.72;71.97;;;;;;;;;;5029472;28;20033;-58
2023/12/20 05:29:05;;;;;;;76.70;72.88;;;;;;;;;;5028474;28;20041;-58
2023/12/20 05:31:31;;;;;;;73.53;69.85;;;;;;;;;;5026181;28;20095;-58
2023/12/20 05:33:57;;;;;;;75.05;71.30;;;;;;;;;;5028409;28;21222;-58
2023/12/20 05:36:22;;;;;;;69.30;65.82;;;;;;;;;;5029119;28;20129;-58
2023/12/20 05:38:47;;;;;;;68.40;64.90;;;;;;;;;;5014748;28;20105;-58
2023/12/20 05:41:13;;;;;;;66.35;63.03;;;;;;;;;;5031136;28;20252;-58
2023/12/20 05:43:39;;;;;;;63.03;59.88;;;;;;;;;;5025496;28;20036;-58
2023/12/20 05:46:04;;;;;;;64.90;61.65;;;;;;;;;;5029614;28;20435;-58
2023/12/20 05:48:29;;;;;;;61.13;58.05;;;;;;;;;;5027119;28;20032;-58
2023/12/20 05:50:55;;;;;;;62.75;59.58;;;;;;;;;;5031556;28;20037;-58
2023/12/20 05:53:20;;;;;;;58.95;56.00;;;;;;;;;;5027855;28;20040;-58
2023/12/20 05:55:45;;;;;;;61.65;58.55;;;;;;;;;;5025707;28;20033;-58
2023/12/20 05:58:11;;;;;;;61.50;58.42;;;;;;;;;;5030739;28;20514;-58
2023/12/20 06:00:36;;;;;;;58.40;55.45;;;;;;;;;;5029863;28;20044;-59
2023/12/20 06:03:02;;;;;;;61.38;57.58;;;;;;;;;;5031384;28;20113;-58
2023/12/20 06:05:27;;;;;;;55.50;52.72;;;;;;;;;;5030079;28;20679;-58
2023/12/20 06:07:52;;;;;;;54.00;51.30;;;;;;;;;;5028543;28;20038;-58
2023/12/20 06:10:18;;;;;;;53.00;50.33;;;;;;;;;;5027873;28;20033;-58
2023/12/20 06:12:43;;;;;;;52.15;49.53;;;;;;;;;;5025357;28;20815;-58
2023/12/20 06:15:09;;;;;;;52.42;49.72;;;;;;;;;;5027518;28;20041;-57
2023/12/20 06:17:34;;;;;;;50.75;48.17;;;;;;;;;;5024921;28;20029;-58
2023/12/20 06:20:01;;;;;;;49.92;47.38;;;;;;;;;;5030520;28;20120;-58
2023/12/20 06:22:26;;;;;;;49.15;46.45;;;;;;;;;;5026434;28;20037;-56
2023/12/20 06:24:51;;;;;;;47.08;44.67;;;;;;;;;;5030091;28;20084;-58
2023/12/20 06:27:17;;;;;;;48.00;45.53;;;;;;;;;;5029577;28;20072;-58
2023/12/20 06:29:44;;;;;;;50.10;47.45;;;;;;;;;;5028042;28;20037;-58
2023/12/20 06:32:09;;;;;;;51.33;48.75;;;;;;;;;;5014348;28;20102;-58
2023/12/20 06:34:35;;;;;;;51.58;48.85;;;;;;;;;;5026522;28;20033;-58
2023/12/20 06:37:00;;;;;;;47.72;45.30;;;;;;;;;;5028755;28;20056;-58
2023/12/20 06:39:26;;;;;;;46.83;44.42;;;;;;;;;;5031086;28;20048;-57
2023/12/20 06:41:51;;;;;;;47.88;45.40;;;;;;;;;;5029077;28;20030;-58
2023/12/20 06:44:17;;;;;;;44.90;42.60;;;;;;;;;;5027110;28;20041;-57
2023/12/20 06:46:43;;;;;;;45.20;42.85;;;;;;;;;;5029148;28;20068;-59
2023/12/20 06:49:08;;;;;;;47.83;45.38;;;;;;;;;;5026958;28;20052;-59
2023/12/20 06:51:33;;;;;;;49.55;47.03;;;;;;;;;;5026809;28;20634;-60
2023/12/20 06:53:59;;;;;;;49.50;47.00;;;;;;;;;;5032505;28;20044;-59
2023/12/20 06:56:25;;;;;;;52.35;49.67;;;;;;;;;;5030009;28;20087;-60
2023/12/20 06:58:50;;;;;;;50.05;47.50;;;;;;;;;;5027374;28;20034;-59
2023/12/20 07:01:16;;;;;;;48.33;45.88;;;;;;;;;;5027862;28;20348;-59
2023/12/20 07:03:42;;;;;;;59.60;55.60;;;;;;;;;;5020803;28;20533;-59
2023/12/20 07:06:08;;;;;;;70.65;65.32;;;;;;;;;;5023732;28;20120;-59
2023/12/20 07:08:33;;;;;;;57.00;53.75;;;;;;;;;;5027813;28;20041;-59
2023/12/20 07:10:58;;;;;;;57.67;54.65;;;;;;;;;;5033860;28;20060;-59
2023/12/20 07:13:24;;;;;;;56.63;53.58;;;;;;;;;;5027547;28;20121;-59
2023/12/20 07:15:50;;;;;;;59.15;55.97;;;;;;;;;;5032058;28;20060;-59
2023/12/20 07:18:15;;;;;;;57.97;54.92;;;;;;;;;;5026867;28;20152;-59
2023/12/20 07:20:40;;;;;;;55.03;52.22;;;;;;;;;;5023375;28;20038;-59
2023/12/20 07:23:06;;;;;;;57.38;54.22;;;;;;;;;;5029424;28;20098;-59
2023/12/20 07:25:32;;;;;;;57.33;54.45;;;;;;;;;;5025015;28;20558;-59
2023/12/20 07:27:58;;;;;;;61.35;58.15;;;;;;;;;;5028804;28;20128;-59
2023/12/20 07:30:23;;;;;;;57.97;55.05;;;;;;;;;;5028079;28;20701;-59
2023/12/20 07:32:49;;;;;;;57.72;54.80;;;;;;;;;;5026542;28;20030;-59
2023/12/20 07:35:15;;;;;;;55.80;52.95;;;;;;;;;;5026861;28;20033;-59
2023/12/20 07:37:40;;;;;;;56.25;53.40;;;;;;;;;;5029551;28;20119;-60
2023/12/20 07:40:07;;;;;;;55.70;52.78;;;;;;;;;;5031822;28;20058;-60
2023/12/20 07:42:32;;;;;;;55.45;52.63;;;;;;;;;;5029117;28;20026;-59
2023/12/20 07:44:58;;;;;;;54.55;51.78;;;;;;;;;;5034584;28;20029;-59
2023/12/20 07:47:25;;;;;;;52.15;49.53;;;;;;;;;;5034601;28;20044;-59
2023/12/20 07:49:51;;;;;;;53.10;50.42;;;;;;;;;;5028350;28;20033;-59
2023/12/20 07:52:18;;;;;;;50.33;47.80;;;;;;;;;;5033297;28;20029;-59
2023/12/20 07:54:44;;;;;;;50.47;47.70;;;;;;;;;;5032458;28;20037;-58
2023/12/20 07:57:10;;;;;;;49.83;47.33;;;;;;;;;;5033991;28;20090;-58
2023/12/20 07:59:36;;;;;;;49.63;47.10;;;;;;;;;;5031480;28;20038;-58
2023/12/20 08:02:01;;;;;;;47.53;45.13;;;;;;;;;;5032310;28;20059;-58
2023/12/20 08:04:27;;;;;;;50.63;47.92;;;;;;;;;;5032196;28;20041;-58
2023/12/20 08:06:52;;;;;;;46.90;44.50;;;;;;;;;;5027281;28;20036;-58
2023/12/20 08:09:17;;;;;;;49.60;45.53;;;;;;;;;;5029528;28;20037;-58
2023/12/20 08:11:47;;;;;;;47.22;44.85;;;;;;;;;;5030397;28;20127;-59
2023/12/20 08:14:12;;;;;;;47.30;44.78;;;;;;;;;;5031732;28;20037;-59
2023/12/20 08:16:38;;;;;;;47.70;45.28;;;;;;;;;;5031698;28;20033;-59
2023/12/20 08:19:03;;;;;;;48.08;45.30;;;;;;;;;;5031403;28;20530;-58
2023/12/20 08:21:28;;;;;;;48.70;46.08;;;;;;;;;;5030877;28;20041;-59
2023/12/20 08:23:54;;;;;;;45.95;43.65;;;;;;;;;;5032922;28;20859;-58
2023/12/20 08:26:21;;;;;;;45.58;43.25;;;;;;;;;;5031707;28;20099;-58
2023/12/20 08:28:46;;;;;;;44.58;42.30;;;;;;;;;;5027955;28;20042;-58
2023/12/20 08:31:16;;;;;;;44.65;41.67;;;;;;;;;;5030179;28;20038;-59
2023/12/20 08:33:41;;;;;;;42.08;39.92;;;;;;;;;;5030101;28;20061;-58
2023/12/20 08:36:07;;;;;;;42.55;40.35;;;;;;;;;;5028598;28;20065;-59
2023/12/20 08:38:32;;;;;;;41.80;39.67;;;;;;;;;;5024555;28;20041;-59
2023/12/20 08:40:57;;;;;;;42.08;39.90;;;;;;;;;;5030480;28;20053;-59
2023/12/20 08:43:23;;;;;;;41.55;39.40;;;;;;;;;;5030125;28;20114;-59
2023/12/20 08:45:48;;;;;;;43.85;41.35;;;;;;;;;;5030809;28;20033;-58
2023/12/20 08:48:13;;;;;;;45.90;43.47;;;;;;;;;;5025291;28;20132;-59
2023/12/20 08:50:39;;;;;;;47.33;44.83;;;;;;;;;;5031104;28;20371;-58
2023/12/20 08:53:04;;;;;;;47.35;44.95;;;;;;;;;;5026520;28;20095;-58
2023/12/20 08:55:30;;;;;;;44.70;42.40;;;;;;;;;;5033642;28;20039;-59
2023/12/20 08:57:56;;;;;;;42.25;40.10;;;;;;;;;;5028653;28;20057;-58
2023/12/20 09:00:24;;;;;;;44.63;42.33;;;;;;;;;;5026788;28;20053;-55
2023/12/20 09:02:49;;;;;;;42.13;40.00;;;;;;;;;;5031573;28;20098;-58
2023/12/20 09:05:15;;;;;;;41.85;39.65;;;;;;;;;;5021596;28;20061;-58
2023/12/20 09:07:40;;;;;;;42.92;40.67;;;;;;;;;;5027183;28;20096;-58
2023/12/20 09:10:06;;;;;;;41.40;39.05;;;;;;;;;;5033424;28;20260;-58
2023/12/20 09:12:31;;;;;;;45.30;42.90;;;;;;;;;;5031550;28;20138;-58
2023/12/20 09:14:56;;;;;;;43.17;40.75;;;;;;;;;;5030212;28;20029;-58
2023/12/20 09:17:22;;;;;;;45.92;43.47;;;;;;;;;;5032107;28;20098;-58
2023/12/20 09:19:48;;;;;;;45.58;43.28;;;;;;;;;;5028957;28;20128;-57
2023/12/20 09:22:14;;;;;;;46.45;43.80;;;;;;;;;;5029437;28;20041;-58
2023/12/20 09:24:39;;;;;;;44.92;42.63;;;;;;;;;;5028688;28;20033;-58
2023/12/20 09:27:05;;;;;;;44.35;42.13;;;;;;;;;;5041251;28;20352;-58
2023/12/20 09:29:31;;;;;;;47.38;44.95;;;;;;;;;;5023114;28;20184;-57
2023/12/20 09:31:57;;;;;;;45.03;42.72;;;;;;;;;;5026824;28;20518;-58
2023/12/20 09:34:23;;;;;;;45.92;43.55;;;;;;;;;;5028897;28;20032;-58
2023/12/20 09:36:48;;;;;;;47.35;44.95;;;;;;;;;;5028431;28;20039;-58
2023/12/20 09:39:14;;;;;;;43.67;41.47;;;;;;;;;;5032879;28;20430;-58
2023/12/20 09:41:44;;;;;;;43.50;41.30;;;;;;;;;;5031093;28;20465;-57
2023/12/20 09:44:14;;;;;;;;;;;;;;;;;;5029417;28;20345;-58
2023/12/20 09:46:43;;;;;;;43.63;41.35;;;;;;;;;;5026895;28;20373;-57
2023/12/20 09:49:10;;;;;;;42.60;40.42;;;;;;;;;;5028521;28;20289;-57
2023/12/20 09:51:36;;;;;;;39.92;37.83;;;;;;;;;;5028075;28;20025;-58
2023/12/20 09:54:03;;;;;;;40.13;38.03;;;;;;;;;;5027232;28;20670;-56
2023/12/20 09:56:29;;;;;;;39.58;37.53;;;;;;;;;;5025876;28;20044;-57
2023/12/20 09:58:55;;;;;;;39.55;37.45;;;;;;;;;;5026098;28;20401;-58
2023/12/20 10:01:21;;;;;;;38.30;36.33;;;;;;;;;;5029514;28;20063;-57
2023/12/20 10:03:46;;;;;;;41.65;39.53;;;;;;;;;;5029651;28;20071;-58
2023/12/20 10:06:12;;;;;;;38.83;36.83;;;;;;;;;;5031222;28;20068;-58
2023/12/20 10:08:38;;;;;;;41.33;39.22;;;;;;;;;;5027990;28;20029;-58
2023/12/20 10:11:05;;;;;;;39.55;37.55;;;;;;;;;;5028460;28;20072;-58
2023/12/20 10:13:30;;;;;;;40.25;38.13;;;;;;;;;;5028112;28;20041;-58
2023/12/20 10:15:57;;;;;;;42.20;40.05;;;;;;;;;;5026825;28;20029;-58
2023/12/20 10:18:22;;;;;;;40.78;38.60;;;;;;;;;;5027971;28;20020;-58
2023/12/20 10:20:48;;;;;;;40.03;37.92;;;;;;;;;;5027390;28;20060;-57
2023/12/20 10:23:15;;;;;;;42.90;40.70;;;;;;;;;;5029148;28;20033;-58
2023/12/20 10:25:41;;;;;;;44.30;42.00;;;;;;;;;;5027348;28;20029;-58
2023/12/20 10:28:18;;;;;;;40.42;38.33;;;;;;;;;;5026302;28;20417;-58
2023/12/20 10:30:44;;;;;;;39.63;37.17;;;;;;;;;;5029382;28;20049;-57
2023/12/20 10:33:09;;;;;;;39.05;37.05;;;;;;;;;;5025160;28;20028;-58
2023/12/20 10:35:38;;;;;;;38.03;35.95;;;;;;;;;;5028066;28;20857;-58
2023/12/20 10:38:05;;;;;;;39.53;36.97;;;;;;;;;;5027852;28;20283;-58
2023/12/20 10:40:31;;;;;;;37.50;35.60;;;;;;;;;;5031161;28;20075;-58
2023/12/20 10:42:58;;;;;;;40.28;38.17;;;;;;;;;;5028317;28;20041;-58
2023/12/20 10:45:23;;;;;;;38.03;35.78;;;;;;;;;;5026515;28;20045;-58
2023/12/20 10:47:50;;;;;;;36.88;34.63;;;;;;;;;;5027262;28;20037;-58
2023/12/20 10:50:16;;;;;;;37.55;35.60;;;;;;;;;;5026054;28;20048;-58
2023/12/20 10:52:42;;;;;;;37.63;35.63;;;;;;;;;;5025842;28;20033;-58
2023/12/20 10:55:08;;;;;;;36.67;34.65;;;;;;;;;;5026374;28;23144;-58
2023/12/20 10:57:36;;;;;;;34.45;32.63;;;;;;;;;;5030763;28;20033;-58
2023/12/20 11:00:04;;;;;;;34.17;32.38;;;;;;;;;;5025867;28;20036;-58
2023/12/20 11:02:39;;;;;;;30.15;28.48;;;;;;;;;;5026005;28;20033;-58
2023/12/20 11:05:22;;;;;;;30.63;28.63;;;;;;;;;;5024614;28;20040;-58
2023/12/20 11:07:54;;;;;;;28.20;26.70;;;;;;;;;;5026492;28;20497;-58
2023/12/20 11:10:22;;;;;;;27.25;25.83;;;;;;;;;;5032138;28;20481;-58
2023/12/20 11:13:12;;;;;;;28.63;27.13;;;;;;;;;;5029007;28;20463;-59
2023/12/20 11:15:37;;;;;;;28.27;26.77;;;;;;;;;;5031661;28;20048;-58
2023/12/20 11:18:04;;;;;;;27.80;26.20;;;;;;;;;;5031173;28;20033;-59
2023/12/20 11:20:37;;;;;;;31.48;29.65;;;;;;;;;;5027507;28;20037;-58
2023/12/20 11:23:03;;;;;;;29.10;27.40;;;;;;;;;;5030327;28;20052;-58
2023/12/20 11:25:29;;;;;;;25.52;24.23;;;;;;;;;;5030101;28;20511;-58
2023/12/20 11:28:15;;;;;;;25.95;24.55;;;;;;;;;;5031217;28;20061;-58
2023/12/20 11:30:51;;;;;;;25.23;23.92;;;;;;;;;;5033505;28;20356;-59
2023/12/20 11:33:16;;;;;;;26.15;24.75;;;;;;;;;;5034102;28;20083;-58
2023/12/20 11:35:42;;;;;;;23.88;22.58;;;;;;;;;;5024612;28;21440;-59
2023/12/20 11:38:09;;;;;;;25.80;24.42;;;;;;;;;;5030118;28;20045;-59
2023/12/20 11:40:35;;;;;;;27.23;25.83;;;;;;;;;;5030109;28;20044;-59
2023/12/20 11:43:01;;;;;;;24.75;23.42;;;;;;;;;;5029447;28;20025;-59
2023/12/20 11:45:27;;;;;;;26.33;24.92;;;;;;;;;;5032475;28;20041;-59
2023/12/20 11:47:55;;;;;;;26.58;25.17;;;;;;;;;;5029907;28;20371;-58
2023/12/20 11:50:22;;;;;;;25.92;24.52;;;;;;;;;;5031547;28;20113;-58
2023/12/20 11:52:48;;;;;;;25.80;24.40;;;;;;;;;;5026485;28;20426;-58
2023/12/20 11:55:14;;;;;;;25.50;24.13;;;;;;;;;;5031119;28;20033;-58
2023/12/20 11:57:39;;;;;;;27.95;26.13;;;;;;;;;;5028310;28;20044;-58
2023/12/20 12:00:06;;;;;;;26.70;25.30;;;;;;;;;;5029551;28;20033;-58
2023/12/20 12:02:32;;;;;;;24.98;23.67;;;;;;;;;;5028856;28;20068;-59
2023/12/20 12:04:58;;;;;;;24.60;23.30;;;;;;;;;;5032013;28;20057;-58
2023/12/20 12:07:24;;;;;;;25.73;24.33;;;;;;;;;;5035023;28;20037;-59
2023/12/20 12:09:50;;;;;;;25.83;24.35;;;;;;;;;;5020462;28;20372;-58
2023/12/20 12:12:15;;;;;;;24.83;23.52;;;;;;;;;;5034732;28;20068;-57
2023/12/20 12:14:41;;;;;;;27.67;26.23;;;;;;;;;;5030405;28;20057;-56
2023/12/20 12:17:13;;;;;;;26.00;24.60;;;;;;;;;;5030422;28;20037;-57
2023/12/20 12:19:42;;;;;;;24.95;23.42;;;;;;;;;;5030545;28;20036;-56
2023/12/20 12:22:13;;;;;;;26.38;24.77;;;;;;;;;;5031023;28;20042;-56
2023/12/20 12:24:46;;;;;;;26.25;23.58;;;;;;;;;;5033753;28;20691;-56
2023/12/20 12:27:15;;;;;;;24.67;23.38;;;;;;;;;;5030720;28;20381;-56
2023/12/20 12:29:59;;;;;;;24.70;23.40;;;;;;;;;;5030489;28;20073;-56
2023/12/20 12:32:25;;;;;;;26.40;24.92;;;;;;;;;;5028611;28;20087;-56
2023/12/20 12:34:50;;;;;;;25.38;23.98;;;;;;;;;;5028966;28;20041;-55
2023/12/20 12:37:15;;;;;;;24.88;23.58;;;;;;;;;;5029269;28;20461;-56
2023/12/20 12:39:41;;;;;;;27.05;25.45;;;;;;;;;;5029421;28;20095;-57
2023/12/20 12:42:06;;;;;;;28.50;26.67;;;;;;;;;;5030571;28;20407;-57
2023/12/20 12:44:31;;;;;;;25.80;24.40;;;;;;;;;;5030248;28;20502;-55
2023/12/20 12:46:57;;;;;;;26.77;25.15;;;;;;;;;;5034106;28;20132;-54
2023/12/20 12:49:22;;;;;;;23.90;22.60;;;;;;;;;;5029905;28;20049;-56
2023/12/20 12:51:48;;;;;;;26.13;24.73;;;;;;;;;;5033325;28;20118;-54
2023/12/20 12:54:15;;;;;;;25.75;24.35;;;;;;;;;;5030399;28;20034;-56
2023/12/20 12:56:41;;;;;;;25.70;24.23;;;;;;;;;;5033169;28;20025;-56
2023/12/20 12:59:06;;;;;;;25.48;24.13;;;;;;;;;;5031482;28;20040;-56
2023/12/20 13:01:31;;;;;;;24.92;23.63;;;;;;;;;;5022467;28;20652;-55
2023/12/20 13:03:57;;;;;;;26.20;24.55;;;;;;;;;;5031985;28;20036;-55
2023/12/20 13:06:22;;;;;;;25.60;24.20;;;;;;;;;;5029157;28;20028;-57
2023/12/20 13:08:48;;;;;;;26.25;24.50;;;;;;;;;;5031237;28;20029;-59
2023/12/20 13:11:13;;;;;;;25.70;24.25;;;;;;;;;;5029743;28;20479;-56
2023/12/20 13:13:39;;;;;;;25.92;24.42;;;;;;;;;;5031295;28;20116;-55
2023/12/20 13:16:04;;;;;;;24.92;23.52;;;;;;;;;;5027004;28;20471;-56
2023/12/20 13:18:30;;;;;;;24.83;23.52;;;;;;;;;;5025784;28;20091;-57
2023/12/20 13:20:55;;;;;;;26.05;24.65;;;;;;;;;;5029140;28;20371;-56
2023/12/20 13:23:21;;;;;;;25.50;24.17;;;;;;;;;;5030866;28;20045;-58
2023/12/20 13:25:46;;;;;;;25.45;23.95;;;;;;;;;;5030918;28;20068;-58
2023/12/20 13:28:12;;;;;;;24.95;23.65;;;;;;;;;;5023597;28;20079;-58
2023/12/20 13:30:38;;;;;;;26.50;24.75;;;;;;;;;;5029973;28;20040;-57
2023/12/20 13:33:05;;;;;;;24.52;23.13;;;;;;;;;;5029385;28;20033;-56
2023/12/20 13:35:30;;;;;;;25.88;24.48;;;;;;;;;;5031233;28;20041;-57
2023/12/20 13:37:56;;;;;;;25.35;23.88;;;;;;;;;;5032386;28;20088;-56
2023/12/20 13:40:21;;;;;;;22.92;21.73;;;;;;;;;;5033267;28;20390;-56
2023/12/20 13:42:48;;;;;;;24.10;22.80;;;;;;;;;;5028164;28;20041;-55
2023/12/20 13:45:13;;;;;;;22.80;21.60;;;;;;;;;;5028926;28;20040;-55
2023/12/20 13:47:39;;;;;;;25.00;23.70;;;;;;;;;;5031572;28;20087;-57
2023/12/20 13:50:05;;;;;;;23.63;22.27;;;;;;;;;;5029704;28;20035;-57
2023/12/20 13:52:30;;;;;;;24.40;23.10;;;;;;;;;;5032342;28;20102;-55
2023/12/20 13:54:55;;;;;;;24.23;22.73;;;;;;;;;;5028949;28;20045;-56
2023/12/20 13:57:21;;;;;;;22.75;21.52;;;;;;;;;;5024273;28;20072;-57
2023/12/20 13:59:46;;;;;;;24.25;22.95;;;;;;;;;;5030691;28;20030;-58
2023/12/20 14:02:11;;;;;;;24.05;22.75;;;;;;;;;;5028677;28;20029;-57
2023/12/20 14:04:39;;;;;;;23.75;22.45;;;;;;;;;;5026918;28;20037;-53
2023/12/20 14:07:04;;;;;;;23.10;21.90;;;;;;;;;;5033129;28;20418;-57
2023/12/20 14:09:30;;;;;;;21.70;20.50;;;;;;;;;;5028287;28;20052;-54
2023/12/20 14:11:55;;;;;;;23.75;22.48;;;;;;;;;;5030304;28;20060;-56